Time;durP1;ratioP1;P1;durP2;ratioP2;P2;SDS_P1;SDS_P2;PMS_P1;PMS_P2;Temp;Humidity;BMP_temperature;BMP_pressure;BME280_temperature;BME280_humidity;BME280_pressure;Samples;Min_cycle;Max_cycle;Signal;HPM_P1;HPM_P2
2021/05/16 00:09:23;;;;;;;2.47;0.57;;;8.40;99.90;;;;;;21168390;28;20392;-46
2021/05/16 00:19:25;;;;;;;1.75;0.50;;;8.50;99.90;;;;;;21167026;28;20096;-46
2021/05/16 00:29:27;;;;;;;1.05;0.40;;;8.30;99.90;;;;;;21167917;28;20139;-46
2021/05/16 00:39:29;;;;;;;0.65;0.20;;;8.50;99.90;;;;;;21166117;28;20066;-47
2021/05/16 00:49:30;;;;;;;0.98;0.30;;;8.70;99.90;;;;;;21166960;28;20036;-46
2021/05/16 00:59:33;;;;;;;0.28;0.20;;;8.70;99.90;;;;;;21129949;28;20097;-46
2021/05/16 01:09:35;;;;;;;1.23;0.35;;;8.60;99.90;;;;;;21165222;28;20069;-47
2021/05/16 01:19:39;;;;;;;1.13;0.30;;;8.70;99.90;;;;;;21163784;28;20035;-47
2021/05/16 01:29:42;;;;;;;1.40;0.22;;;8.40;99.90;;;;;;21144608;28;20393;-47
2021/05/16 01:39:47;;;;;;;0.65;0.20;;;8.00;99.90;;;;;;21142993;28;20100;-48
2021/05/16 01:49:51;;;;;;;1.27;0.20;;;7.90;99.90;;;;;;21142962;28;20036;-47
2021/05/16 01:59:54;;;;;;;1.17;0.13;;;8.70;99.90;;;;;;21160595;28;20397;-49
2021/05/16 02:09:57;;;;;;;0.65;0.10;;;8.90;99.90;;;;;;21140338;28;20097;-47
2021/05/16 02:20:00;;;;;;;0.80;0.15;;;9.00;99.90;;;;;;21140209;28;20574;-47
2021/05/16 02:30:09;;;;;;;1.23;0.22;;;8.40;99.90;;;;;;21139085;28;20043;-48
2021/05/16 02:40:14;;;;;;;0.20;0.10;;;8.50;99.90;;;;;;21139015;28;20046;-47
2021/05/16 02:50:18;;;;;;;0.30;0.10;;;9.00;99.90;;;;;;21138535;28;20484;-48
2021/05/16 03:00:38;;;;;;;0.10;0.10;;;8.80;99.90;;;;;;21137727;28;20070;-47
2021/05/16 03:10:40;;;;;;;0.10;0.10;;;8.70;99.90;;;;;;21138070;28;20028;-47
2021/05/16 03:20:42;;;;;;;0.10;0.10;;;8.60;99.90;;;;;;21154880;28;20113;-47
2021/05/16 03:30:44;;;;;;;0.65;0.30;;;8.20;99.90;;;;;;21154277;28;20077;-47
2021/05/16 03:40:48;;;;;;;1.42;0.47;;;7.50;99.90;;;;;;21154178;28;20044;-47
2021/05/16 03:50:50;;;;;;;2.45;1.10;;;6.80;99.90;;;;;;21155032;28;20051;-47
2021/05/16 04:00:52;;;;;;;0.55;0.20;;;6.30;99.90;;;;;;21170547;28;20069;-47
2021/05/16 04:10:53;;;;;;;1.45;0.45;;;6.00;99.90;;;;;;21169570;28;20089;-47
2021/05/16 04:20:55;;;;;;;4.22;0.63;;;5.50;99.90;;;;;;21168423;28;20044;-47
2021/05/16 04:30:57;;;;;;;2.15;0.50;;;5.50;99.90;;;;;;21166889;28;20378;-49
2021/05/16 04:40:59;;;;;;;2.38;0.90;;;5.40;99.90;;;;;;21149009;28;20084;-47
2021/05/16 04:51:01;;;;;;;2.13;1.00;;;5.60;99.90;;;;;;21166262;28;20104;-47
2021/05/16 05:01:05;;;;;;;2.25;0.65;;;6.20;99.90;;;;;;21165110;28;20569;-47
2021/05/16 05:11:07;;;;;;;1.10;0.70;;;6.80;99.90;;;;;;21145838;28;20023;-48
2021/05/16 05:21:09;;;;;;;2.60;0.70;;;7.50;99.90;;;;;;21080464;28;20047;-47
2021/05/16 05:31:10;;;;;;;0.50;0.40;;;8.10;99.90;;;;;;21037930;28;20052;-48
2021/05/16 05:41:14;;;;;;;1.35;0.40;;;8.60;99.90;;;;;;21076910;28;20576;-48
2021/05/16 05:51:15;;;;;;;1.90;0.50;;;9.10;99.90;;;;;;21076571;28;20036;-48
2021/05/16 06:01:17;;;;;;;7.22;1.05;;;9.40;99.90;;;;;;21075178;28;20052;-51
2021/05/16 06:11:19;;;;;;;2.08;0.70;;;9.60;99.90;;;;;;21066887;28;20389;-48
2021/05/16 06:21:21;;;;;;;2.70;1.02;;;10.10;99.90;;;;;;21156527;28;20522;-48
2021/05/16 06:31:24;;;;;;;2.45;1.00;;;11.60;99.90;;;;;;21140785;28;20388;-46
2021/05/16 06:41:26;;;;;;;1.35;0.68;;;14.00;99.90;;;;;;21138916;28;20043;-49
2021/05/16 06:51:28;;;;;;;0.90;0.70;;;16.00;99.90;;;;;;21156924;28;20093;-46
2021/05/16 07:01:32;;;;;;;1.35;0.98;;;16.50;99.90;;;;;;21155471;28;20062;-46
2021/05/16 07:11:34;;;;;;;2.90;1.20;;;15.10;99.90;;;;;;21137712;28;20093;-49
2021/05/16 07:21:36;;;;;;;4.15;1.55;;;13.50;99.90;;;;;;21155537;28;20109;-49
2021/05/16 07:31:38;;;;;;;2.40;1.60;;;13.00;99.90;;;;;;21166256;28;20097;-48
2021/05/16 07:41:40;;;;;;;3.75;2.10;;;12.80;99.90;;;;;;21170628;28;20035;-48
2021/05/16 07:51:42;;;;;;;5.80;2.00;;;12.60;99.90;;;;;;21170260;28;20152;-50
2021/05/16 08:01:44;;;;;;;2.63;1.40;;;12.70;99.90;;;;;;21168930;28;20546;-49
2021/05/16 08:11:45;;;;;;;2.45;1.10;;;13.70;99.90;;;;;;21167297;28;20070;-51
2021/05/16 08:21:47;;;;;;;3.40;1.42;;;14.70;99.90;;;;;;21161462;28;20040;-49
2021/05/16 08:31:49;;;;;;;2.42;1.17;;;14.20;99.90;;;;;;21065216;28;20082;-49
2021/05/16 08:41:51;;;;;;;3.75;1.50;;;14.20;99.90;;;;;;21081098;28;20052;-49
2021/05/16 08:51:54;;;;;;;2.58;0.90;;;14.60;99.90;;;;;;21080755;28;20543;-49
2021/05/16 09:02:00;;;;;;;3.17;1.67;;;15.20;99.90;;;;;;21080236;28;20481;-47
2021/05/16 09:12:07;;;;;;;4.50;1.63;;;15.40;99.90;;;;;;21084864;28;20396;-53
2021/05/16 09:22:10;;;;;;;3.47;2.00;;;15.30;99.90;;;;;;21163466;28;20078;-50
2021/05/16 09:32:12;;;;;;;7.85;2.20;;;15.40;99.90;;;;;;21162150;28;20040;-49
2021/05/16 09:42:16;;;;;;;4.85;3.17;;;14.90;99.90;;;;;;21143404;28;20040;-48
2021/05/16 09:52:24;;;;;;;7.03;5.57;;;13.50;99.90;;;;;;21076195;28;20113;-48
2021/05/16 10:02:28;;;;;;;6.43;4.80;;;12.40;99.90;;;;;;21077261;28;20040;-48
2021/05/16 10:12:30;;;;;;;6.88;5.55;;;12.60;99.90;;;;;;21092238;28;20036;-50
2021/05/16 10:22:31;;;;;;;7.90;5.47;;;12.80;99.90;;;;;;21158025;28;20051;-49
2021/05/16 10:32:39;;;;;;;3.22;1.00;;;13.30;99.90;;;;;;21157647;28;20040;-49
2021/05/16 10:42:43;;;;;;;3.28;0.88;;;14.30;99.90;;;;;;21157510;28;20043;-48
2021/05/16 10:53:02;;;;;;;7.28;5.70;;;16.40;99.90;;;;;;21155476;28;20031;-47
2021/05/16 11:03:07;;;;;;;5.90;2.58;;;17.90;99.90;;;;;;21137569;28;20044;-47
2021/05/16 11:13:13;;;;;;;6.22;3.30;;;16.60;99.90;;;;;;21136734;28;20039;-46
2021/05/16 11:23:28;;;;;;;10.90;6.43;;;16.10;99.90;;;;;;21154939;28;20036;-46
2021/05/16 11:33:37;;;;;;;8.35;6.78;;;17.30;99.90;;;;;;21154748;28;20065;-49
2021/05/16 11:43:42;;;;;;;11.97;8.10;;;17.50;99.90;;;;;;21154076;28;20040;-49
2021/05/16 11:53:51;;;;;;;10.32;9.18;;;16.70;99.90;;;;;;21154723;28;20473;-48
2021/05/16 12:03:59;;;;;;;24.00;12.23;;;14.90;99.90;;;;;;21134833;28;20047;-50
2021/05/16 12:14:13;;;;;;;633.70;44.37;;;13.60;99.90;;;;;;21156215;28;20040;-49
2021/05/16 12:24:15;;;;;;;521.33;37.70;;;12.30;99.90;;;;;;21168261;28;20086;-49
2021/05/16 12:34:23;;;;;;;47.38;18.02;;;11.50;99.90;;;;;;21166734;28;20086;-48
2021/05/16 12:44:25;;;;;;;435.15;41.85;;;11.30;99.90;;;;;;21167274;28;20036;-48
2021/05/16 12:54:29;;;;;;;515.28;42.83;;;11.20;99.90;;;;;;21164865;28;20093;-50
2021/05/16 13:04:31;;;;;;;741.15;53.90;;;11.30;99.90;;;;;;21165206;28;20047;-47
2021/05/16 13:14:38;;;;;;;1108.38;70.75;;;11.20;99.90;;;;;;21143601;28;20545;-48
2021/05/16 13:24:49;;;;;;;905.35;58.47;;;11.30;99.90;;;;;;21162238;28;20101;-48
2021/05/16 13:34:51;;;;;;;1341.95;79.88;;;11.10;99.90;;;;;;21162520;28;20059;-47
2021/05/16 13:44:55;;;;;;;1253.07;67.55;;;11.00;99.90;;;;;;21158943;28;20105;-47
2021/05/16 13:54:57;;;;;;;972.08;57.03;;;10.90;99.90;;;;;;21160374;28;20168;-48
2021/05/16 14:04:59;;;;;;;1067.07;60.58;;;10.90;99.90;;;;;;21142075;28;20081;-48
2021/05/16 14:15:01;;;;;;;585.55;30.10;;;11.10;99.90;;;;;;21158913;28;20048;-50
2021/05/16 14:25:04;;;;;;;906.65;49.65;;;10.70;99.90;;;;;;21140091;28;20171;-47
2021/05/16 14:35:07;;;;;;;640.97;35.03;;;10.30;99.90;;;;;;21157620;28;20043;-49
2021/05/16 14:45:10;;;;;;;1320.47;56.40;;;10.10;99.90;;;;;;21156378;28;20039;-50
2021/05/16 14:55:12;;;;;;;573.83;28.95;;;9.90;99.90;;;;;;21157218;28;20092;-47
2021/05/16 15:05:14;;;;;;;1613.13;65.95;;;9.70;99.90;;;;;;21155801;28;20408;-47
2021/05/16 15:15:16;;;;;;;973.03;37.13;;;9.50;99.90;;;;;;21125260;28;20032;-47
2021/05/16 15:25:18;;;;;;;484.33;22.20;;;9.40;99.90;;;;;;21070371;28;20056;-47
2021/05/16 15:35:20;;;;;;;626.38;23.90;;;9.50;99.90;;;;;;21070838;28;20482;-47
2021/05/16 15:45:22;;;;;;;585.20;25.27;;;9.40;99.90;;;;;;21069452;28;20405;-47
2021/05/16 15:55:24;;;;;;;858.67;32.95;;;9.40;99.90;;;;;;21066326;28;20485;-47
2021/05/16 16:05:29;;;;;;;368.90;12.43;;;9.30;99.90;;;;;;21066830;28;20090;-48
2021/05/16 16:15:32;;;;;;;732.10;45.83;;;9.20;99.90;;;;;;21098049;28;20047;-48
2021/05/16 16:25:34;;;;;;;1075.90;54.00;;;9.10;99.90;;;;;;21168256;28;20073;-47
2021/05/16 16:35:38;;;;;;;829.40;38.38;;;9.00;99.90;;;;;;21148916;28;20051;-47
2021/05/16 16:45:40;;;;;;;483.80;22.65;;;9.00;99.90;;;;;;21166418;28;20063;-47
2021/05/16 16:55:42;;;;;;;764.60;37.95;;;9.00;99.90;;;;;;21165898;28;20058;-47
2021/05/16 17:05:45;;;;;;;382.83;21.98;;;9.00;99.90;;;;;;21163313;28;20097;-47
2021/05/16 17:15:48;;;;;;;443.02;28.77;;;9.00;99.90;;;;;;21164246;28;20035;-48
2021/05/16 17:25:49;;;;;;;183.90;14.75;;;9.00;99.90;;;;;;21124483;28;20071;-47
2021/05/16 17:35:53;;;;;;;762.85;45.95;;;9.00;99.90;;;;;;21077826;28;20052;-47
2021/05/16 17:45:55;;;;;;;1899.40;118.93;;;9.20;99.90;;;;;;21126061;28;20089;-47
2021/05/16 17:55:57;;;;;;;745.78;54.05;;;9.10;99.90;;;;;;21160449;28;20047;-47
2021/05/16 18:06:01;;;;;;;779.88;48.90;;;9.00;99.90;;;;;;21159784;28;20062;-47
2021/05/16 18:16:04;;;;;;;631.47;47.72;;;8.80;99.90;;;;;;21196300;27;20039;-48
2021/05/16 18:26:06;;;;;;;360.65;25.20;;;8.80;99.90;;;;;;21182760;27;20036;-47
2021/05/16 18:36:09;;;;;;;11.60;8.15;;;8.90;99.90;;;;;;21157777;28;20537;-47
2021/05/16 18:46:12;;;;;;;11.35;7.78;;;8.90;99.90;;;;;;21158160;28;20108;-47
2021/05/16 18:56:14;;;;;;;13.75;9.73;;;8.90;99.90;;;;;;21156637;28;20043;-46
2021/05/16 19:06:16;;;;;;;15.38;9.10;;;9.00;99.90;;;;;;21156237;28;20044;-46
2021/05/16 19:16:19;;;;;;;13.48;9.18;;;9.00;99.90;;;;;;21156237;28;20100;-48
2021/05/16 19:26:21;;;;;;;13.95;10.38;;;8.90;99.90;;;;;;21147120;28;20096;-47
2021/05/16 19:36:23;;;;;;;393.52;27.77;;;9.00;99.90;;;;;;21172071;28;20039;-47
2021/05/16 19:46:24;;;;;;;17.20;11.13;;;9.10;99.90;;;;;;21172953;28;20427;-47
2021/05/16 19:56:27;;;;;;;17.23;11.07;;;9.00;99.90;;;;;;21152372;28;20040;-47
2021/05/16 20:06:29;;;;;;;13.52;8.88;;;9.00;99.90;;;;;;21169144;28;20076;-47
2021/05/16 20:16:32;;;;;;;14.27;8.30;;;9.00;99.90;;;;;;21150701;28;20093;-47
2021/05/16 20:26:36;;;;;;;15.00;10.45;;;9.10;99.90;;;;;;21149899;28;20055;-48
2021/05/16 20:36:39;;;;;;;603.90;33.45;;;9.10;99.90;;;;;;21148335;28;20044;-48
2021/05/16 20:46:41;;;;;;;13.88;7.22;;;9.00;99.90;;;;;;21167439;28;20085;-47
2021/05/16 20:56:45;;;;;;;12.88;8.57;;;9.00;99.90;;;;;;21166335;28;20105;-47
2021/05/16 21:06:46;;;;;;;13.80;8.60;;;9.00;99.90;;;;;;21164926;28;20112;-47
2021/05/16 21:16:48;;;;;;;12.50;5.85;;;9.00;99.90;;;;;;21146653;28;20043;-47
2021/05/16 21:26:50;;;;;;;11.60;7.70;;;9.10;99.90;;;;;;21164022;28;20039;-47
2021/05/16 21:36:52;;;;;;;105.93;13.98;;;9.00;99.90;;;;;;21162576;28;20059;-47
2021/05/16 21:46:54;;;;;;;344.77;24.77;;;9.00;99.90;;;;;;21217702;27;20442;-50
2021/05/16 21:56:56;;;;;;;989.95;61.97;;;9.00;99.90;;;;;;21247148;27;20047;-46
2021/05/16 22:06:59;;;;;;;782.90;54.50;;;9.00;99.90;;;;;;21245243;27;20107;-46
2021/05/16 22:17:01;;;;;;;17.17;10.57;;;8.90;99.90;;;;;;21225681;27;20468;-46
2021/05/16 22:27:03;;;;;;;18.00;10.15;;;8.90;99.90;;;;;;21192318;27;20074;-46
2021/05/16 22:37:05;;;;;;;473.80;41.55;;;8.90;99.90;;;;;;21123737;28;20093;-46
2021/05/16 22:47:08;;;;;;;28.75;13.98;;;8.90;99.90;;;;;;21157244;28;20382;-46
2021/05/16 22:57:10;;;;;;;1999.90;131.48;;;8.90;99.90;;;;;;21156083;28;20382;-46
2021/05/16 23:07:14;;;;;;;1999.90;113.13;;;8.90;99.90;;;;;;21155471;28;20040;-46
2021/05/16 23:17:20;;;;;;;1429.03;80.85;;;9.00;99.90;;;;;;21155442;28;20043;-46
2021/05/16 23:27:22;;;;;;;1629.10;90.88;;;8.90;99.90;;;;;;21156435;28;20051;-46
2021/05/16 23:37:26;;;;;;;1778.85;116.95;;;9.00;99.90;;;;;;21154784;28;20542;-46
2021/05/16 23:47:29;;;;;;;1443.22;85.03;;;9.00;99.90;;;;;;21154182;28;20089;-47
2021/05/16 23:57:31;;;;;;;1458.40;75.72;;;9.00;99.90;;;;;;21138450;28;20039;-47
